createdAt,value
2019-03-06T00:01:35.727Z,95358.63
2019-03-06T00:04:05.186Z,95358.43
2019-03-06T00:06:34.532Z,95367.08
2019-03-06T00:09:05.882Z,95366.00
2019-03-06T00:11:35.206Z,95374.61
2019-03-06T00:14:04.543Z,95359.63
2019-03-06T00:16:33.942Z,95367.42
2019-03-06T00:19:03.367Z,95366.01
2019-03-06T00:21:32.716Z,95370.98
2019-03-06T00:24:02.112Z,95375.33
2019-03-06T00:26:31.451Z,95365.47
2019-03-06T00:29:02.438Z,95357.34
2019-03-06T00:31:31.824Z,95358.53
2019-03-06T00:34:01.140Z,95353.96
2019-03-06T00:36:31.811Z,95352.47
2019-03-06T00:39:01.221Z,95354.91
2019-03-06T00:41:35.981Z,95357.77
2019-03-06T00:44:05.441Z,95359.87
2019-03-06T00:46:34.770Z,95360.78
2019-03-06T00:49:04.328Z,95368.75
2019-03-06T00:51:33.680Z,95358.71
2019-03-06T00:54:03.046Z,95365.34
2019-03-06T00:56:32.455Z,95355.80
2019-03-06T00:59:01.885Z,95347.22
2019-03-06T01:01:31.223Z,95353.32
2019-03-06T01:04:00.545Z,95356.02
2019-03-06T01:06:29.884Z,95347.69
2019-03-06T01:08:59.251Z,95356.12
2019-03-06T01:11:28.822Z,95350.30
2019-03-06T01:13:58.165Z,95359.27
2019-03-06T01:16:27.517Z,95239.25
2019-03-06T01:18:57.045Z,95355.53
2019-03-06T01:21:26.392Z,95343.31
2019-03-06T01:23:55.736Z,95341.84
2019-03-06T01:26:25.103Z,95348.14
2019-03-06T01:28:54.427Z,95341.41
2019-03-06T01:31:24.002Z,95337.95
2019-03-06T01:34:12.326Z,95332.94
2019-03-06T01:37:03.615Z,95330.91
2019-03-06T01:39:51.919Z,95330.16
2019-03-06T01:42:30.181Z,95337.66
2019-03-06T01:45:02.523Z,95332.02
2019-03-06T01:47:31.910Z,95330.52
2019-03-06T01:50:01.240Z,95332.88
2019-03-06T01:52:30.595Z,95324.97
2019-03-06T01:55:00.360Z,95321.67
2019-03-06T01:57:29.743Z,95328.47
2019-03-06T01:59:59.080Z,95329.47
2019-03-06T02:02:28.414Z,95323.84
2019-03-06T02:04:57.767Z,95331.09
2019-03-06T02:07:27.411Z,95328.34
2019-03-06T02:09:56.986Z,95327.51
2019-03-06T02:12:26.532Z,95325.73
2019-03-06T02:14:55.960Z,95320.43
2019-03-06T02:17:25.271Z,95327.13
2019-03-06T02:19:54.627Z,95333.27
2019-03-06T02:22:23.986Z,95327.23
2019-03-06T02:24:53.338Z,95328.44
2019-03-06T02:27:22.683Z,95331.77
2019-03-06T02:29:52.031Z,95340.73
2019-03-06T02:32:21.410Z,95337.91
2019-03-06T02:34:50.787Z,95337.07
2019-03-06T02:37:20.164Z,95334.91
2019-03-06T02:39:49.492Z,95335.20
2019-03-06T02:42:18.857Z,95337.77
2019-03-06T02:44:48.223Z,95337.41
2019-03-06T02:47:17.602Z,95336.02
2019-03-06T02:49:46.930Z,95338.84
2019-03-06T02:52:16.269Z,95338.83
2019-03-06T02:54:45.622Z,95340.34
2019-03-06T02:57:15.012Z,95335.17
2019-03-06T02:59:58.853Z,95342.70
2019-03-06T03:02:42.334Z,95348.90
2019-03-06T03:05:31.509Z,95347.73
2019-03-06T03:08:00.935Z,95349.15
2019-03-06T03:10:30.302Z,95354.50
2019-03-06T03:13:00.134Z,95363.75
2019-03-06T03:15:29.625Z,95359.41
2019-03-06T03:17:59.032Z,95354.40
2019-03-06T03:20:28.360Z,95359.75
2019-03-06T03:22:57.740Z,95349.92
2019-03-06T03:25:27.369Z,95357.03
2019-03-06T03:27:56.721Z,95363.62
2019-03-06T03:30:26.121Z,95364.73
2019-03-06T03:32:55.511Z,95365.94
2019-03-06T03:35:24.847Z,95369.41
2019-03-06T03:37:54.237Z,95372.25
2019-03-06T03:40:23.712Z,95373.16
2019-03-06T03:42:53.350Z,95369.94
2019-03-06T03:45:22.720Z,95375.03
2019-03-06T03:47:52.077Z,95369.64
2019-03-06T03:50:21.477Z,95365.98
2019-03-06T03:52:50.862Z,95354.29
2019-03-06T03:55:20.313Z,95364.33
2019-03-06T03:57:49.647Z,95370.86
2019-03-06T04:00:19.018Z,95368.41
2019-03-06T04:02:48.505Z,95371.02
2019-03-06T04:05:17.860Z,95372.02
2019-03-06T04:07:47.214Z,95381.94
2019-03-06T04:10:16.804Z,95373.95
2019-03-06T04:12:46.198Z,95382.40
2019-03-06T04:15:15.694Z,95382.25
2019-03-06T04:17:45.061Z,95382.87
2019-03-06T04:20:14.400Z,95387.86
2019-03-06T04:22:43.776Z,95383.39
2019-03-06T04:25:14.108Z,95397.16
2019-03-06T04:27:43.457Z,95391.27
2019-03-06T04:30:13.099Z,95391.71
2019-03-06T04:32:42.478Z,95385.02
2019-03-06T04:35:11.983Z,95382.13
2019-03-06T04:37:41.361Z,95385.50
2019-03-06T04:40:10.949Z,95395.59
2019-03-06T04:42:40.426Z,95401.50
2019-03-06T04:45:10.144Z,95417.09
2019-03-06T04:47:41.850Z,95420.51
2019-03-06T04:50:11.235Z,95440.51
2019-03-06T04:52:40.570Z,95434.16
2019-03-06T04:55:10.117Z,95432.98
2019-03-06T04:57:39.454Z,95439.48
2019-03-06T05:00:10.265Z,95441.00
2019-03-06T05:02:39.635Z,95447.05
2019-03-06T05:05:09.664Z,95440.47
2019-03-06T05:07:39.013Z,95441.92
2019-03-06T05:10:09.092Z,95437.56
2019-03-06T05:12:38.470Z,95444.80
2019-03-06T05:15:08.706Z,95430.61
2019-03-06T05:18:00.289Z,95431.20
2019-03-06T05:20:30.078Z,95432.56
2019-03-06T05:22:59.445Z,95446.23
2019-03-06T05:25:29.073Z,95457.19
2019-03-06T05:27:58.464Z,95455.44
2019-03-06T05:30:28.521Z,95451.52
2019-03-06T05:32:59.003Z,95448.66
2019-03-06T05:35:38.845Z,95450.33
2019-03-06T05:38:17.599Z,95440.36
2019-03-06T05:40:47.096Z,95448.23
2019-03-06T05:43:16.495Z,95456.08
2019-03-06T05:45:46.267Z,95457.30
2019-03-06T05:48:15.690Z,95468.27
2019-03-06T05:50:45.063Z,95469.34
2019-03-06T05:53:14.518Z,95473.30
2019-03-06T05:55:43.991Z,95466.98
2019-03-06T05:58:13.565Z,95463.77
2019-03-06T06:00:43.049Z,95474.05
2019-03-06T06:03:15.010Z,95476.59
2019-03-06T06:05:44.394Z,95479.92
2019-03-06T06:08:13.737Z,95479.20
2019-03-06T06:10:43.171Z,95489.82
2019-03-06T06:13:12.581Z,95485.34
2019-03-06T06:15:41.946Z,95481.84
2019-03-06T06:18:11.295Z,95489.48
2019-03-06T06:20:40.679Z,95490.53
2019-03-06T06:23:31.768Z,95486.64
2019-03-06T06:26:01.272Z,95494.00
2019-03-06T06:28:30.626Z,95498.71
2019-03-06T06:30:59.947Z,95496.45
2019-03-06T06:33:29.318Z,95503.44
2019-03-06T06:35:58.724Z,95500.97
2019-03-06T06:38:28.137Z,95500.72
2019-03-06T06:40:57.590Z,95505.39
2019-03-06T06:43:26.976Z,95507.95
2019-03-06T06:45:56.359Z,95516.56
2019-03-06T06:48:26.805Z,95519.16
2019-03-06T06:51:26.311Z,95524.27
2019-03-06T06:54:13.049Z,95514.30
2019-03-06T06:57:26.227Z,95532.00
2019-03-06T07:00:21.489Z,95528.88
2019-03-06T07:03:48.937Z,95538.42
2019-03-06T07:06:40.085Z,95538.24
2019-03-06T07:09:28.308Z,95537.34
2019-03-06T07:12:28.913Z,95530.67
2019-03-06T07:15:20.227Z,95541.61
2019-03-06T07:18:04.782Z,95538.11
2019-03-06T07:20:52.587Z,95540.73
2019-03-06T07:23:38.689Z,95545.60
2019-03-06T07:26:39.202Z,95558.19
2019-03-06T07:29:21.313Z,95551.52
2019-03-06T07:32:15.529Z,95564.53
2019-03-06T07:35:39.519Z,95564.06
2019-03-06T07:38:09.094Z,95563.09
2019-03-06T07:40:56.718Z,95571.66
2019-03-06T07:43:44.285Z,95570.55
2019-03-06T07:46:36.268Z,95565.16
2019-03-06T07:49:23.472Z,95566.63
2019-03-06T07:52:17.698Z,95568.56
2019-03-06T07:55:11.849Z,95568.16
2019-03-06T07:58:16.746Z,95577.39
2019-03-06T08:00:46.212Z,95579.82
2019-03-06T08:03:43.571Z,95576.25
2019-03-06T08:06:12.971Z,95576.65
2019-03-06T08:08:42.716Z,95578.27
2019-03-06T08:11:20.673Z,95593.36
2019-03-06T08:13:58.748Z,95589.53
2019-03-06T08:16:38.689Z,95590.13
2019-03-06T08:19:18.156Z,95590.74
2019-03-06T08:22:21.727Z,95593.63
2019-03-06T08:25:03.453Z,95590.05
2019-03-06T08:27:32.924Z,95605.04
2019-03-06T08:30:02.565Z,95596.39
2019-03-06T08:32:33.396Z,95594.80
2019-03-06T08:35:02.801Z,95594.91
2019-03-06T08:37:38.143Z,95592.91
2019-03-06T08:40:08.015Z,95589.36
2019-03-06T08:42:37.367Z,95594.97
2019-03-06T08:45:07.929Z,95598.62
2019-03-06T08:47:58.844Z,95590.66
2019-03-06T08:50:47.140Z,95593.95
2019-03-06T08:53:27.357Z,95594.87
2019-03-06T08:56:09.942Z,95596.05
2019-03-06T08:58:56.931Z,95598.20
2019-03-06T09:01:59.710Z,95595.91
2019-03-06T09:04:35.843Z,95597.63
2019-03-06T09:07:36.757Z,95599.58
2019-03-06T09:10:14.800Z,95604.00
2019-03-06T09:12:48.830Z,95614.16
2019-03-06T09:15:45.073Z,95610.57
2019-03-06T09:18:30.296Z,95615.14
2019-03-06T09:21:15.998Z,95599.41
2019-03-06T09:24:25.879Z,95609.16
2019-03-06T09:27:38.486Z,95613.11
2019-03-06T09:30:35.813Z,95611.20
2019-03-06T09:33:30.425Z,95601.49
2019-03-06T09:36:30.775Z,95611.48
2019-03-06T09:39:34.231Z,95612.02
2019-03-06T09:42:21.244Z,95607.06
2019-03-06T09:45:06.065Z,95612.58
2019-03-06T09:47:41.212Z,95614.20
2019-03-06T09:50:29.961Z,95607.54
2019-03-06T09:53:17.073Z,95612.63
2019-03-06T09:56:01.140Z,95609.16
2019-03-06T09:58:49.632Z,95613.32
2019-03-06T10:01:38.233Z,95606.87
2019-03-06T10:04:32.566Z,95617.69
2019-03-06T10:07:23.647Z,95609.11
2019-03-06T10:10:10.740Z,95607.32
2019-03-06T10:13:08.473Z,95610.94
2019-03-06T10:15:59.921Z,95605.67
2019-03-06T10:18:55.026Z,95600.94
2019-03-06T10:21:25.736Z,95593.19
2019-03-06T10:23:55.240Z,95594.80
2019-03-06T10:26:24.779Z,95590.59
2019-03-06T10:28:54.175Z,95592.44
2019-03-06T10:31:23.958Z,95587.01
2019-03-06T10:33:53.327Z,95588.91
2019-03-06T10:36:22.709Z,95578.95
2019-03-06T10:38:52.102Z,95573.52
2019-03-06T10:41:21.728Z,95578.67
2019-03-06T10:43:51.139Z,95575.19
2019-03-06T10:46:20.554Z,95570.05
2019-03-06T10:48:49.904Z,95565.27
2019-03-06T10:51:19.481Z,95559.80
2019-03-06T10:53:48.807Z,95567.42
2019-03-06T10:56:18.349Z,95565.31
2019-03-06T10:58:47.816Z,95562.88
2019-03-06T11:01:17.841Z,95552.14
2019-03-06T11:04:06.130Z,95545.42
2019-03-06T11:06:35.797Z,95556.45
2019-03-06T11:09:09.046Z,95547.82
2019-03-06T11:11:38.528Z,95552.58
2019-03-06T11:14:09.437Z,95558.84
2019-03-06T11:16:38.946Z,95551.70
2019-03-06T11:19:08.785Z,95545.16
2019-03-06T11:21:38.343Z,95545.21
2019-03-06T11:24:08.170Z,95555.13
2019-03-06T11:26:38.637Z,95550.05
2019-03-06T11:29:09.535Z,95547.73
2019-03-06T11:31:39.521Z,95543.41
2019-03-06T11:34:09.721Z,95546.70
2019-03-06T11:36:39.380Z,95552.62
2019-03-06T11:39:11.786Z,95549.50
2019-03-06T11:41:41.313Z,95537.84
2019-03-06T11:44:10.851Z,95540.10
2019-03-06T11:46:40.218Z,95545.45
2019-03-06T11:49:09.613Z,95546.22
2019-03-06T11:51:39.865Z,95554.55
2019-03-06T11:54:09.594Z,95539.52
2019-03-06T11:56:39.500Z,95549.02
2019-03-06T11:59:08.866Z,95551.04
2019-03-06T12:01:47.600Z,95553.84
2019-03-06T12:04:10.317Z,95545.31
2019-03-06T12:06:39.683Z,95543.86
2019-03-06T12:09:27.995Z,95549.16
2019-03-06T12:11:58.036Z,95540.21
2019-03-06T12:14:27.951Z,95540.06
2019-03-06T12:16:57.325Z,95543.56
2019-03-06T12:19:27.270Z,95552.23
2019-03-06T12:21:57.337Z,95555.31
2019-03-06T12:24:26.753Z,95550.53
2019-03-06T12:26:56.135Z,95549.37
2019-03-06T12:29:25.492Z,95536.27
2019-03-06T12:31:54.997Z,95539.70
2019-03-06T12:34:24.375Z,95541.13
2019-03-06T12:36:54.200Z,95536.02
2019-03-06T12:39:23.764Z,95533.48
2019-03-06T12:41:54.270Z,95525.97
2019-03-06T12:44:23.670Z,95538.90
2019-03-06T12:46:54.986Z,95532.13
2019-03-06T12:49:26.337Z,95539.78
2019-03-06T12:51:55.741Z,95540.06
2019-03-06T12:54:25.182Z,95550.99
2019-03-06T12:56:54.519Z,95544.16
2019-03-06T12:59:23.879Z,95556.22
2019-03-06T13:01:53.381Z,95551.48
2019-03-06T13:04:22.733Z,95553.60
2019-03-06T13:06:57.359Z,95566.48
2019-03-06T13:09:26.784Z,95565.41
2019-03-06T13:11:56.191Z,95560.30
2019-03-06T13:14:25.737Z,95558.81
2019-03-06T13:16:56.267Z,95550.03
2019-03-06T13:19:25.621Z,95553.09
2019-03-06T13:21:54.967Z,95558.06
2019-03-06T13:24:24.355Z,95562.34
2019-03-06T13:26:53.814Z,95555.73
2019-03-06T13:29:23.141Z,95557.16
2019-03-06T13:31:52.526Z,95554.72
2019-03-06T13:34:35.337Z,95565.82
2019-03-06T13:37:04.708Z,95554.30
2019-03-06T13:39:34.431Z,95559.81
2019-03-06T13:42:03.824Z,95557.20
2019-03-06T13:44:33.325Z,95561.34
2019-03-06T13:47:03.073Z,95557.14
2019-03-06T13:49:32.462Z,95567.11
2019-03-06T13:52:01.873Z,95558.52
2019-03-06T13:54:31.318Z,95571.39
2019-03-06T13:57:00.808Z,95567.00
2019-03-06T13:59:30.182Z,95569.04
2019-03-06T14:01:59.706Z,95573.55
2019-03-06T14:04:30.893Z,95573.85
2019-03-06T14:07:00.296Z,95570.52
2019-03-06T14:09:30.003Z,95570.64
2019-03-06T14:11:59.383Z,95569.69
2019-03-06T14:14:28.830Z,95569.27
2019-03-06T14:16:58.755Z,95565.91
2019-03-06T14:19:28.348Z,95568.47
2019-03-06T14:21:57.706Z,95571.24
2019-03-06T14:24:27.208Z,95575.80
2019-03-06T14:26:56.591Z,95564.31
2019-03-06T14:29:26.016Z,95571.13
2019-03-06T14:31:55.422Z,95571.13
2019-03-06T14:34:24.845Z,95571.22
2019-03-06T14:36:54.634Z,95571.29
2019-03-06T14:39:26.571Z,95576.91
2019-03-06T14:41:56.385Z,95585.09
2019-03-06T14:44:25.763Z,95577.48
2019-03-06T14:46:55.194Z,95578.05
2019-03-06T14:49:24.676Z,95587.06
2019-03-06T14:51:54.277Z,95576.46
2019-03-06T14:54:23.988Z,95577.56
2019-03-06T14:56:53.329Z,95585.27
2019-03-06T14:59:24.735Z,95586.49
2019-03-06T15:01:54.097Z,95576.59
2019-03-06T15:04:24.055Z,95580.91
2019-03-06T15:06:53.475Z,95584.48
2019-03-06T15:09:27.397Z,95579.97
2019-03-06T15:11:56.789Z,95582.55
2019-03-06T15:14:35.487Z,95585.33
2019-03-06T15:16:58.268Z,95589.55
2019-03-06T15:19:27.609Z,95591.70
2019-03-06T15:21:57.029Z,95586.69
2019-03-06T15:24:26.519Z,95593.58
2019-03-06T15:26:55.921Z,95599.72
2019-03-06T15:29:25.297Z,95602.24
2019-03-06T15:31:54.933Z,95601.86
2019-03-06T15:34:24.693Z,95608.67
2019-03-06T15:36:54.204Z,95615.67
2019-03-06T15:39:42.624Z,95622.89
2019-03-06T15:42:10.158Z,95614.73
2019-03-06T15:44:39.631Z,95621.38
2019-03-06T15:47:09.070Z,95625.53
2019-03-06T15:49:38.476Z,95630.80
2019-03-06T15:52:10.339Z,95625.53
2019-03-06T15:54:39.769Z,95625.92
2019-03-06T15:57:10.152Z,95625.33
2019-03-06T15:59:39.888Z,95631.61
2019-03-06T16:02:09.330Z,95641.94
2019-03-06T16:04:38.886Z,95637.20
2019-03-06T16:07:08.490Z,95638.18
2019-03-06T16:09:38.876Z,95649.30
2019-03-06T16:12:08.250Z,95648.09
2019-03-06T16:14:37.612Z,95647.58
2019-03-06T16:17:07.098Z,95655.53
2019-03-06T16:19:36.518Z,95655.55
2019-03-06T16:22:06.203Z,95657.88
2019-03-06T16:24:37.511Z,95658.80
2019-03-06T16:27:06.689Z,95668.07
2019-03-06T16:29:36.097Z,95668.31
2019-03-06T16:32:05.554Z,95661.77
2019-03-06T16:34:34.924Z,95666.32
2019-03-06T16:37:04.568Z,95672.25
2019-03-06T16:39:33.941Z,95677.23
2019-03-06T16:42:03.392Z,95676.58
2019-03-06T16:44:32.824Z,95680.20
2019-03-06T16:47:06.728Z,95684.39
2019-03-06T16:49:34.155Z,95683.82
2019-03-06T16:52:03.663Z,95684.52
2019-03-06T16:54:33.119Z,95686.55
2019-03-06T16:57:02.533Z,95688.72
2019-03-06T16:59:31.940Z,95698.19
2019-03-06T17:02:01.842Z,95705.20
2019-03-06T17:04:31.512Z,95677.97
2019-03-06T17:07:01.359Z,95705.98
2019-03-06T17:09:30.765Z,95715.91
2019-03-06T17:12:00.519Z,95714.31
2019-03-06T17:14:30.375Z,95716.30
2019-03-06T17:16:59.754Z,95722.59
2019-03-06T17:19:29.118Z,95722.59
2019-03-06T17:21:58.505Z,95725.52
2019-03-06T17:24:30.190Z,95731.38
2019-03-06T17:26:59.701Z,95733.64
2019-03-06T17:29:29.397Z,95734.64
2019-03-06T17:31:59.510Z,95728.39
2019-03-06T17:34:28.853Z,95741.22
2019-03-06T17:36:58.232Z,95738.41
2019-03-06T17:39:27.647Z,95740.26
2019-03-06T17:41:57.124Z,95742.61
2019-03-06T17:44:26.506Z,95744.08
2019-03-06T17:46:56.107Z,95736.72
2019-03-06T17:49:25.434Z,95753.29
2019-03-06T17:51:54.800Z,95750.09
2019-03-06T17:54:24.220Z,95750.58
2019-03-06T17:56:53.630Z,95750.66
2019-03-06T17:59:23.246Z,95751.41
2019-03-06T18:01:53.558Z,95746.18
2019-03-06T18:04:24.381Z,95748.16
2019-03-06T18:06:53.859Z,95751.42
2019-03-06T18:09:23.230Z,95753.56
2019-03-06T18:11:52.673Z,95753.38
2019-03-06T18:14:22.323Z,95746.56
2019-03-06T18:16:51.804Z,95744.03
2019-03-06T18:19:21.247Z,95743.97
2019-03-06T18:21:50.694Z,95750.91
2019-03-06T18:24:20.164Z,95752.27
2019-03-06T18:26:49.554Z,95751.95
2019-03-06T18:29:19.139Z,95753.52
2019-03-06T18:31:48.578Z,95753.73
2019-03-06T18:34:18.098Z,95760.28
2019-03-06T18:36:47.952Z,95749.28
2019-03-06T18:39:18.590Z,95745.72
2019-03-06T18:41:48.482Z,95755.36
2019-03-06T18:44:18.644Z,95753.33
2019-03-06T18:46:48.136Z,95751.69
2019-03-06T18:49:20.001Z,95755.95
2019-03-06T18:51:49.416Z,95761.70
2019-03-06T18:54:18.941Z,95756.09
2019-03-06T18:56:48.686Z,95754.66
2019-03-06T18:59:18.145Z,95763.95
2019-03-06T19:01:47.610Z,95767.66
2019-03-06T19:04:17.005Z,95771.04
2019-03-06T19:06:46.843Z,95764.73
2019-03-06T19:09:19.832Z,95759.30
2019-03-06T19:11:49.244Z,95760.80
2019-03-06T19:14:18.878Z,95757.07
2019-03-06T19:16:51.248Z,95753.88
2019-03-06T19:19:20.674Z,95763.57
2019-03-06T19:21:50.184Z,95763.02
2019-03-06T19:24:19.627Z,95757.92
2019-03-06T19:26:49.011Z,95761.84
2019-03-06T19:29:18.400Z,95759.92
2019-03-06T19:31:47.775Z,95768.88
2019-03-06T19:34:19.469Z,95772.94
2019-03-06T19:36:48.880Z,95771.64
2019-03-06T19:39:18.605Z,95777.70
2019-03-06T19:41:48.017Z,95779.02
2019-03-06T19:44:17.352Z,95784.50
2019-03-06T19:46:46.841Z,95788.90
2019-03-06T19:49:16.484Z,95797.52
2019-03-06T19:51:51.426Z,95808.03
2019-03-06T19:54:17.404Z,95810.31
2019-03-06T19:56:47.088Z,95806.12
2019-03-06T19:59:16.463Z,95807.93
2019-03-06T20:01:45.863Z,95804.23
2019-03-06T20:04:15.198Z,95805.91
2019-03-06T20:06:44.601Z,95799.31
2019-03-06T20:09:27.926Z,95800.89
2019-03-06T20:11:57.456Z,95801.91
2019-03-06T20:14:27.085Z,95795.25
2019-03-06T20:16:56.657Z,95801.00
2019-03-06T20:19:26.221Z,95803.97
2019-03-06T20:21:55.609Z,95806.12
2019-03-06T20:24:24.990Z,95812.33
2019-03-06T20:26:54.490Z,95820.56
2019-03-06T20:29:23.859Z,95824.09
2019-03-06T20:31:53.246Z,95823.19
2019-03-06T20:34:22.635Z,95825.00
2019-03-06T20:36:53.268Z,95830.55
2019-03-06T20:39:22.745Z,95826.95
2019-03-06T20:41:52.551Z,95825.70
2019-03-06T20:44:22.484Z,95831.34
2019-03-06T20:46:53.638Z,95827.30
2019-03-06T20:49:23.014Z,95830.53
2019-03-06T20:51:52.833Z,95838.92
2019-03-06T20:54:22.256Z,95841.34
2019-03-06T20:56:51.654Z,95843.80
2019-03-06T20:59:21.027Z,95846.17
2019-03-06T21:01:50.462Z,95847.31
2019-03-06T21:04:20.261Z,95850.01
2019-03-06T21:06:50.028Z,95845.48
2019-03-06T21:09:19.421Z,95849.61
2019-03-06T21:11:48.973Z,95848.38
2019-03-06T21:14:18.404Z,95845.97
2019-03-06T21:16:47.870Z,95850.70
2019-03-06T21:19:17.237Z,95848.91
2019-03-06T21:21:46.595Z,95849.32
2019-03-06T21:24:15.936Z,95843.88
2019-03-06T21:26:45.453Z,95846.87
2019-03-06T21:29:14.951Z,95851.09
2019-03-06T21:31:44.307Z,95844.95
2019-03-06T21:34:13.715Z,95851.26
2019-03-06T21:36:44.883Z,95843.55
2019-03-06T21:39:26.679Z,95839.84
2019-03-06T21:41:56.039Z,95847.73
2019-03-06T21:44:25.449Z,95841.73
2019-03-06T21:46:54.860Z,95843.42
2019-03-06T21:49:24.236Z,95839.22
2019-03-06T21:51:53.599Z,95840.43
2019-03-06T21:54:23.157Z,95848.84
2019-03-06T21:56:52.500Z,95851.47
2019-03-06T21:59:21.872Z,95858.99
2019-03-06T22:01:51.227Z,95853.80
2019-03-06T22:04:20.653Z,95861.13
2019-03-06T22:06:50.061Z,95855.14
2019-03-06T22:09:30.447Z,95862.96
2019-03-06T22:11:59.835Z,95856.40
2019-03-06T22:14:29.204Z,95861.36
2019-03-06T22:17:01.320Z,95855.58
2019-03-06T22:19:31.621Z,95866.06
2019-03-06T22:22:01.400Z,95874.19
2019-03-06T22:24:30.764Z,95870.91
2019-03-06T22:27:00.114Z,95875.83
2019-03-06T22:29:29.449Z,95869.94
2019-03-06T22:31:58.867Z,95866.12
2019-03-06T22:34:28.428Z,95871.91
2019-03-06T22:36:57.795Z,95875.13
2019-03-06T22:39:27.144Z,95872.06
2019-03-06T22:41:56.480Z,95870.64
2019-03-06T22:44:25.831Z,95864.88
2019-03-06T22:46:55.262Z,95871.77
2019-03-06T22:49:24.824Z,95862.55
2019-03-06T22:51:54.252Z,95863.01
2019-03-06T22:54:23.663Z,95868.33
2019-03-06T22:56:53.063Z,95861.97
2019-03-06T22:59:22.597Z,95865.58
2019-03-06T23:01:53.358Z,95860.86
2019-03-06T23:04:22.802Z,95861.97
2019-03-06T23:06:52.238Z,95858.86
2019-03-06T23:09:21.689Z,95852.51
2019-03-06T23:11:51.210Z,95845.05
2019-03-06T23:14:20.976Z,95855.58
2019-03-06T23:16:50.903Z,95872.98
2019-03-06T23:19:20.645Z,95851.82
2019-03-06T23:21:50.047Z,95854.30
2019-03-06T23:24:19.498Z,95849.75
2019-03-06T23:26:48.946Z,95857.59
2019-03-06T23:29:18.357Z,95862.14
2019-03-06T23:31:50.498Z,95850.02
2019-03-06T23:34:20.210Z,95846.69
2019-03-06T23:36:52.640Z,95842.54
2019-03-06T23:39:22.608Z,95850.84
2019-03-06T23:41:52.214Z,95839.25
2019-03-06T23:44:21.609Z,95848.61
2019-03-06T23:46:50.953Z,95844.59
2019-03-06T23:49:20.311Z,95851.57
2019-03-06T23:51:52.695Z,95847.00
2019-03-06T23:54:22.089Z,95396.64
2019-03-06T23:56:51.635Z,95853.28
2019-03-06T23:59:20.974Z,95854.68
